sensor_id;sensor_type;location;lat;lon;timestamp;P1;durP1;ratioP1;P2;durP2;ratioP2
64887;SDS011;51386;53.082;8.816;2022-10-04T00:02:26;5.03;;;2.47;;
64887;SDS011;51386;53.082;8.816;2022-10-04T00:05:00;4.80;;;2.87;;
64887;SDS011;51386;53.082;8.816;2022-10-04T00:07:33;7.10;;;2.97;;
64887;SDS011;51386;53.082;8.816;2022-10-04T00:10:15;6.00;;;3.40;;
64887;SDS011;51386;53.082;8.816;2022-10-04T00:12:48;5.97;;;2.63;;
64887;SDS011;51386;53.082;8.816;2022-10-04T00:15:23;7.93;;;3.10;;
64887;SDS011;51386;53.082;8.816;2022-10-04T00:17:58;4.00;;;3.00;;
64887;SDS011;51386;53.082;8.816;2022-10-04T00:20:56;4.90;;;2.87;;
64887;SDS011;51386;53.082;8.816;2022-10-04T00:26:14;4.60;;;2.80;;
64887;SDS011;51386;53.082;8.816;2022-10-04T00:29:32;3.70;;;2.70;;
64887;SDS011;51386;53.082;8.816;2022-10-04T00:32:25;6.70;;;3.33;;
64887;SDS011;51386;53.082;8.816;2022-10-04T00:34:55;4.47;;;2.43;;
64887;SDS011;51386;53.082;8.816;2022-10-04T00:37:23;4.93;;;2.53;;
64887;SDS011;51386;53.082;8.816;2022-10-04T00:40:00;4.90;;;3.27;;
64887;SDS011;51386;53.082;8.816;2022-10-04T00:42:45;6.87;;;2.90;;
64887;SDS011;51386;53.082;8.816;2022-10-04T00:45:30;7.03;;;3.30;;
64887;SDS011;51386;53.082;8.816;2022-10-04T00:48:24;8.73;;;3.97;;
64887;SDS011;51386;53.082;8.816;2022-10-04T00:51:03;8.40;;;3.13;;
64887;SDS011;51386;53.082;8.816;2022-10-04T00:53:42;4.20;;;3.00;;
64887;SDS011;51386;53.082;8.816;2022-10-04T00:56:22;4.40;;;2.40;;
64887;SDS011;51386;53.082;8.816;2022-10-04T00:59:08;4.50;;;3.50;;
64887;SDS011;51386;53.082;8.816;2022-10-04T01:02:03;5.83;;;3.60;;
64887;SDS011;51386;53.082;8.816;2022-10-04T01:04:40;5.30;;;3.33;;
64887;SDS011;51386;53.082;8.816;2022-10-04T01:07:14;6.13;;;2.93;;
64887;SDS011;51386;53.082;8.816;2022-10-04T01:09:52;7.00;;;3.27;;
64887;SDS011;51386;53.082;8.816;2022-10-04T01:12:30;6.70;;;3.40;;
64887;SDS011;51386;53.082;8.816;2022-10-04T01:15:10;5.20;;;3.00;;
64887;SDS011;51386;53.082;8.816;2022-10-04T01:20:59;3.53;;;2.90;;
64887;SDS011;51386;53.082;8.816;2022-10-04T01:23:35;6.33;;;3.40;;
64887;SDS011;51386;53.082;8.816;2022-10-04T01:29:11;4.23;;;2.77;;
64887;SDS011;51386;53.082;8.816;2022-10-04T01:31:42;9.07;;;3.83;;
64887;SDS011;51386;53.082;8.816;2022-10-04T01:34:14;6.57;;;4.00;;
64887;SDS011;51386;53.082;8.816;2022-10-04T01:36:43;6.33;;;3.80;;
64887;SDS011;51386;53.082;8.816;2022-10-04T01:39:14;6.33;;;3.80;;
64887;SDS011;51386;53.082;8.816;2022-10-04T01:41:46;6.17;;;3.60;;
64887;SDS011;51386;53.082;8.816;2022-10-04T01:44:22;6.43;;;4.03;;
64887;SDS011;51386;53.082;8.816;2022-10-04T01:46:55;4.53;;;3.60;;
64887;SDS011;51386;53.082;8.816;2022-10-04T01:49:29;5.00;;;3.30;;
64887;SDS011;51386;53.082;8.816;2022-10-04T01:52:02;8.67;;;3.83;;
64887;SDS011;51386;53.082;8.816;2022-10-04T01:54:42;6.37;;;3.30;;
64887;SDS011;51386;53.082;8.816;2022-10-04T01:57:14;7.07;;;3.83;;
64887;SDS011;51386;53.082;8.816;2022-10-04T01:59:48;8.67;;;3.57;;
64887;SDS011;51386;53.082;8.816;2022-10-04T02:02:24;6.90;;;3.67;;
64887;SDS011;51386;53.082;8.816;2022-10-04T02:05:02;8.50;;;4.00;;
64887;SDS011;51386;53.082;8.816;2022-10-04T02:07:36;6.53;;;4.03;;
64887;SDS011;51386;53.082;8.816;2022-10-04T02:10:09;8.10;;;3.50;;
64887;SDS011;51386;53.082;8.816;2022-10-04T02:12:44;4.47;;;3.53;;
64887;SDS011;51386;53.082;8.816;2022-10-04T02:15:16;5.77;;;3.60;;
64887;SDS011;51386;53.082;8.816;2022-10-04T02:17:47;6.30;;;3.77;;
64887;SDS011;51386;53.082;8.816;2022-10-04T02:20:16;8.37;;;3.70;;
64887;SDS011;51386;53.082;8.816;2022-10-04T02:22:48;6.77;;;3.93;;
64887;SDS011;51386;53.082;8.816;2022-10-04T02:25:26;7.87;;;4.10;;
64887;SDS011;51386;53.082;8.816;2022-10-04T02:27:53;9.47;;;3.70;;
64887;SDS011;51386;53.082;8.816;2022-10-04T02:30:22;8.23;;;3.63;;
64887;SDS011;51386;53.082;8.816;2022-10-04T02:32:51;5.23;;;3.50;;
64887;SDS011;51386;53.082;8.816;2022-10-04T02:35:27;5.70;;;4.00;;
64887;SDS011;51386;53.082;8.816;2022-10-04T02:38:06;6.10;;;3.50;;
64887;SDS011;51386;53.082;8.816;2022-10-04T02:40:46;7.70;;;3.83;;
64887;SDS011;51386;53.082;8.816;2022-10-04T02:43:23;4.93;;;3.33;;
64887;SDS011;51386;53.082;8.816;2022-10-04T02:46:01;7.23;;;3.70;;
64887;SDS011;51386;53.082;8.816;2022-10-04T02:48:38;8.17;;;3.53;;
64887;SDS011;51386;53.082;8.816;2022-10-04T02:51:17;5.40;;;3.57;;
64887;SDS011;51386;53.082;8.816;2022-10-04T02:53:54;5.57;;;3.60;;
64887;SDS011;51386;53.082;8.816;2022-10-04T02:56:31;7.10;;;3.23;;
64887;SDS011;51386;53.082;8.816;2022-10-04T02:59:02;5.80;;;4.00;;
64887;SDS011;51386;53.082;8.816;2022-10-04T03:01:41;9.27;;;3.90;;
64887;SDS011;51386;53.082;8.816;2022-10-04T03:04:19;6.73;;;3.87;;
64887;SDS011;51386;53.082;8.816;2022-10-04T03:06:50;6.90;;;3.87;;
64887;SDS011;51386;53.082;8.816;2022-10-04T03:09:21;7.80;;;4.10;;
64887;SDS011;51386;53.082;8.816;2022-10-04T03:11:57;7.67;;;3.40;;
64887;SDS011;51386;53.082;8.816;2022-10-04T03:14:25;4.00;;;3.50;;
64887;SDS011;51386;53.082;8.816;2022-10-04T03:16:55;6.67;;;3.70;;
64887;SDS011;51386;53.082;8.816;2022-10-04T03:19:26;7.87;;;4.10;;
64887;SDS011;51386;53.082;8.816;2022-10-04T03:21:58;5.53;;;4.40;;
64887;SDS011;51386;53.082;8.816;2022-10-04T03:24:30;7.33;;;4.03;;
64887;SDS011;51386;53.082;8.816;2022-10-04T03:27:05;6.23;;;3.73;;
64887;SDS011;51386;53.082;8.816;2022-10-04T03:29:39;4.33;;;3.57;;
64887;SDS011;51386;53.082;8.816;2022-10-04T03:32:09;4.10;;;3.70;;
64887;SDS011;51386;53.082;8.816;2022-10-04T03:34:41;9.93;;;4.80;;
64887;SDS011;51386;53.082;8.816;2022-10-04T03:37:18;6.80;;;3.90;;
64887;SDS011;51386;53.082;8.816;2022-10-04T03:39:47;7.97;;;4.20;;
64887;SDS011;51386;53.082;8.816;2022-10-04T03:42:20;5.60;;;3.77;;
64887;SDS011;51386;53.082;8.816;2022-10-04T03:44:51;7.67;;;3.97;;
64887;SDS011;51386;53.082;8.816;2022-10-04T03:47:26;7.27;;;4.33;;
64887;SDS011;51386;53.082;8.816;2022-10-04T03:49:59;8.47;;;3.90;;
64887;SDS011;51386;53.082;8.816;2022-10-04T03:52:38;11.40;;;5.00;;
64887;SDS011;51386;53.082;8.816;2022-10-04T03:55:15;7.17;;;4.87;;
64887;SDS011;51386;53.082;8.816;2022-10-04T03:57:46;8.57;;;4.80;;
64887;SDS011;51386;53.082;8.816;2022-10-04T04:00:14;9.97;;;4.60;;
64887;SDS011;51386;53.082;8.816;2022-10-04T04:02:44;7.43;;;3.97;;
64887;SDS011;51386;53.082;8.816;2022-10-04T04:05:18;9.07;;;4.90;;
64887;SDS011;51386;53.082;8.816;2022-10-04T04:07:53;5.93;;;4.33;;
64887;SDS011;51386;53.082;8.816;2022-10-04T04:10:32;6.73;;;4.90;;
64887;SDS011;51386;53.082;8.816;2022-10-04T04:13:08;6.40;;;4.50;;
64887;SDS011;51386;53.082;8.816;2022-10-04T04:15:49;6.47;;;5.13;;
64887;SDS011;51386;53.082;8.816;2022-10-04T04:18:19;7.83;;;3.93;;
64887;SDS011;51386;53.082;8.816;2022-10-04T04:20:50;9.47;;;5.23;;
64887;SDS011;51386;53.082;8.816;2022-10-04T04:23:25;7.33;;;4.50;;
64887;SDS011;51386;53.082;8.816;2022-10-04T04:25:59;11.87;;;5.43;;
64887;SDS011;51386;53.082;8.816;2022-10-04T04:28:43;7.13;;;5.30;;
64887;SDS011;51386;53.082;8.816;2022-10-04T04:31:17;6.13;;;4.50;;
64887;SDS011;51386;53.082;8.816;2022-10-04T04:33:50;8.70;;;5.23;;
64887;SDS011;51386;53.082;8.816;2022-10-04T04:36:25;9.23;;;6.07;;
64887;SDS011;51386;53.082;8.816;2022-10-04T04:39:05;7.43;;;5.30;;
64887;SDS011;51386;53.082;8.816;2022-10-04T04:41:53;8.70;;;5.50;;
64887;SDS011;51386;53.082;8.816;2022-10-04T04:44:22;9.57;;;6.20;;
64887;SDS011;51386;53.082;8.816;2022-10-04T04:46:50;11.17;;;5.93;;
64887;SDS011;51386;53.082;8.816;2022-10-04T04:49:19;7.50;;;5.97;;
64887;SDS011;51386;53.082;8.816;2022-10-04T04:51:48;10.10;;;5.50;;
64887;SDS011;51386;53.082;8.816;2022-10-04T04:54:17;8.57;;;5.87;;
64887;SDS011;51386;53.082;8.816;2022-10-04T04:56:49;10.60;;;6.07;;
64887;SDS011;51386;53.082;8.816;2022-10-04T04:59:21;8.97;;;5.90;;
64887;SDS011;51386;53.082;8.816;2022-10-04T05:01:53;7.23;;;5.50;;
64887;SDS011;51386;53.082;8.816;2022-10-04T05:04:20;8.23;;;5.77;;
64887;SDS011;51386;53.082;8.816;2022-10-04T05:06:58;11.47;;;5.97;;
64887;SDS011;51386;53.082;8.816;2022-10-04T05:09:30;8.47;;;6.23;;
64887;SDS011;51386;53.082;8.816;2022-10-04T05:12:04;10.27;;;6.80;;
64887;SDS011;51386;53.082;8.816;2022-10-04T05:14:44;11.10;;;6.13;;
64887;SDS011;51386;53.082;8.816;2022-10-04T05:17:17;11.70;;;6.20;;
64887;SDS011;51386;53.082;8.816;2022-10-04T05:19:49;9.37;;;6.57;;
64887;SDS011;51386;53.082;8.816;2022-10-04T05:22:22;7.53;;;5.80;;
64887;SDS011;51386;53.082;8.816;2022-10-04T05:24:52;8.90;;;7.10;;
64887;SDS011;51386;53.082;8.816;2022-10-04T05:27:26;9.83;;;6.70;;
64887;SDS011;51386;53.082;8.816;2022-10-04T05:30:03;10.97;;;6.40;;
64887;SDS011;51386;53.082;8.816;2022-10-04T05:32:41;11.40;;;6.83;;
64887;SDS011;51386;53.082;8.816;2022-10-04T05:35:23;8.70;;;6.70;;
64887;SDS011;51386;53.082;8.816;2022-10-04T05:37:55;11.03;;;7.13;;
64887;SDS011;51386;53.082;8.816;2022-10-04T05:40:34;11.23;;;7.10;;
64887;SDS011;51386;53.082;8.816;2022-10-04T05:43:28;7.37;;;6.57;;
64887;SDS011;51386;53.082;8.816;2022-10-04T05:48:51;11.70;;;7.87;;
64887;SDS011;51386;53.082;8.816;2022-10-04T05:51:23;11.53;;;6.63;;
64887;SDS011;51386;53.082;8.816;2022-10-04T05:53:53;10.53;;;7.13;;
64887;SDS011;51386;53.082;8.816;2022-10-04T05:56:41;11.60;;;7.10;;
64887;SDS011;51386;53.082;8.816;2022-10-04T05:59:51;11.67;;;7.20;;
64887;SDS011;51386;53.082;8.816;2022-10-04T06:05:59;9.73;;;7.70;;
64887;SDS011;51386;53.082;8.816;2022-10-04T06:08:40;16.13;;;8.13;;
64887;SDS011;51386;53.082;8.816;2022-10-04T06:11:24;13.10;;;7.50;;
64887;SDS011;51386;53.082;8.816;2022-10-04T06:14:12;11.60;;;7.23;;
64887;SDS011;51386;53.082;8.816;2022-10-04T06:17:25;14.17;;;7.77;;
64887;SDS011;51386;53.082;8.816;2022-10-04T06:23:36;18.43;;;7.27;;
64887;SDS011;51386;53.082;8.816;2022-10-04T06:26:17;14.27;;;8.10;;
64887;SDS011;51386;53.082;8.816;2022-10-04T06:28:51;20.00;;;7.90;;
64887;SDS011;51386;53.082;8.816;2022-10-04T06:34:44;14.53;;;8.70;;
64887;SDS011;51386;53.082;8.816;2022-10-04T06:44:41;15.03;;;8.10;;
64887;SDS011;51386;53.082;8.816;2022-10-04T06:48:01;11.10;;;8.07;;
64887;SDS011;51386;53.082;8.816;2022-10-04T06:50:48;14.57;;;8.60;;
64887;SDS011;51386;53.082;8.816;2022-10-04T06:53:23;13.30;;;8.30;;
64887;SDS011;51386;53.082;8.816;2022-10-04T06:59:14;16.00;;;8.57;;
64887;SDS011;51386;53.082;8.816;2022-10-04T07:02:06;8.83;;;7.57;;
64887;SDS011;51386;53.082;8.816;2022-10-04T07:04:43;14.40;;;7.73;;
64887;SDS011;51386;53.082;8.816;2022-10-04T07:07:34;10.10;;;6.83;;
64887;SDS011;51386;53.082;8.816;2022-10-04T07:16:04;10.07;;;7.37;;
64887;SDS011;51386;53.082;8.816;2022-10-04T07:19:00;12.27;;;7.60;;
64887;SDS011;51386;53.082;8.816;2022-10-04T07:21:57;11.90;;;6.70;;
64887;SDS011;51386;53.082;8.816;2022-10-04T07:24:50;12.40;;;7.93;;
64887;SDS011;51386;53.082;8.816;2022-10-04T07:27:32;12.23;;;7.23;;
64887;SDS011;51386;53.082;8.816;2022-10-04T07:30:44;12.00;;;6.87;;
64887;SDS011;51386;53.082;8.816;2022-10-04T07:33:22;8.90;;;6.23;;
64887;SDS011;51386;53.082;8.816;2022-10-04T07:36:05;10.37;;;6.30;;
64887;SDS011;51386;53.082;8.816;2022-10-04T07:38:38;6.50;;;5.37;;
64887;SDS011;51386;53.082;8.816;2022-10-04T07:41:17;9.53;;;6.03;;
64887;SDS011;51386;53.082;8.816;2022-10-04T07:43:57;10.43;;;6.60;;
64887;SDS011;51386;53.082;8.816;2022-10-04T07:49:26;7.87;;;6.30;;
64887;SDS011;51386;53.082;8.816;2022-10-04T07:52:08;10.37;;;6.90;;
64887;SDS011;51386;53.082;8.816;2022-10-04T07:54:53;11.20;;;6.83;;
64887;SDS011;51386;53.082;8.816;2022-10-04T07:57:35;10.67;;;5.87;;
64887;SDS011;51386;53.082;8.816;2022-10-04T08:00:18;9.03;;;5.97;;
64887;SDS011;51386;53.082;8.816;2022-10-04T08:03:20;8.03;;;5.80;;
64887;SDS011;51386;53.082;8.816;2022-10-04T08:06:19;8.53;;;5.90;;
64887;SDS011;51386;53.082;8.816;2022-10-04T08:13:02;8.53;;;5.57;;
64887;SDS011;51386;53.082;8.816;2022-10-04T08:15:55;9.80;;;5.30;;
64887;SDS011;51386;53.082;8.816;2022-10-04T08:18:58;7.90;;;5.20;;
64887;SDS011;51386;53.082;8.816;2022-10-04T08:21:58;8.53;;;4.97;;
64887;SDS011;51386;53.082;8.816;2022-10-04T08:25:01;9.60;;;4.93;;
64887;SDS011;51386;53.082;8.816;2022-10-04T08:27:45;5.47;;;4.73;;
64887;SDS011;51386;53.082;8.816;2022-10-04T08:30:50;7.10;;;5.50;;
64887;SDS011;51386;53.082;8.816;2022-10-04T08:33:56;10.10;;;5.10;;
64887;SDS011;51386;53.082;8.816;2022-10-04T08:37:32;10.17;;;4.73;;
64887;SDS011;51386;53.082;8.816;2022-10-04T08:44:02;8.37;;;4.83;;
64887;SDS011;51386;53.082;8.816;2022-10-04T08:47:30;9.97;;;4.73;;
64887;SDS011;51386;53.082;8.816;2022-10-04T08:58:14;8.60;;;4.63;;
64887;SDS011;51386;53.082;8.816;2022-10-04T09:01:18;9.17;;;3.90;;
64887;SDS011;51386;53.082;8.816;2022-10-04T09:04:38;7.27;;;4.20;;
64887;SDS011;51386;53.082;8.816;2022-10-04T09:10:57;8.40;;;3.77;;
64887;SDS011;51386;53.082;8.816;2022-10-04T09:13:53;9.63;;;4.13;;
64887;SDS011;51386;53.082;8.816;2022-10-04T09:16:51;7.87;;;4.07;;
64887;SDS011;51386;53.082;8.816;2022-10-04T09:19:52;7.40;;;4.00;;
64887;SDS011;51386;53.082;8.816;2022-10-04T09:22:51;9.73;;;4.07;;
64887;SDS011;51386;53.082;8.816;2022-10-04T09:25:43;8.40;;;4.13;;
64887;SDS011;51386;53.082;8.816;2022-10-04T09:28:34;7.63;;;4.13;;
64887;SDS011;51386;53.082;8.816;2022-10-04T09:31:46;11.03;;;4.70;;
64887;SDS011;51386;53.082;8.816;2022-10-04T09:35:12;7.40;;;3.77;;
64887;SDS011;51386;53.082;8.816;2022-10-04T09:38:14;10.23;;;3.50;;
64887;SDS011;51386;53.082;8.816;2022-10-04T09:41:19;6.70;;;4.10;;
64887;SDS011;51386;53.082;8.816;2022-10-04T09:47:34;7.03;;;3.80;;
64887;SDS011;51386;53.082;8.816;2022-10-04T09:54:13;6.83;;;3.70;;
64887;SDS011;51386;53.082;8.816;2022-10-04T09:57:18;4.43;;;3.37;;
64887;SDS011;51386;53.082;8.816;2022-10-04T10:00:13;4.37;;;2.70;;
64887;SDS011;51386;53.082;8.816;2022-10-04T10:09:50;3.35;;;2.80;;
64887;SDS011;51386;53.082;8.816;2022-10-04T10:13:05;4.43;;;3.07;;
64887;SDS011;51386;53.082;8.816;2022-10-04T10:16:11;9.47;;;3.90;;
64887;SDS011;51386;53.082;8.816;2022-10-04T10:19:05;4.60;;;2.95;;
64887;SDS011;51386;53.082;8.816;2022-10-04T10:21:59;6.33;;;3.77;;
64887;SDS011;51386;53.082;8.816;2022-10-04T10:28:03;7.77;;;3.13;;
64887;SDS011;51386;53.082;8.816;2022-10-04T10:31:01;6.80;;;3.20;;
64887;SDS011;51386;53.082;8.816;2022-10-04T10:34:04;9.40;;;3.83;;
64887;SDS011;51386;53.082;8.816;2022-10-04T10:37:21;6.27;;;3.77;;
64887;SDS011;51386;53.082;8.816;2022-10-04T10:40:24;7.77;;;3.80;;
64887;SDS011;51386;53.082;8.816;2022-10-04T10:43:18;4.67;;;2.93;;
64887;SDS011;51386;53.082;8.816;2022-10-04T10:46:19;8.90;;;4.10;;
64887;SDS011;51386;53.082;8.816;2022-10-04T10:49:25;8.53;;;3.97;;
64887;SDS011;51386;53.082;8.816;2022-10-04T10:52:41;5.67;;;3.60;;
64887;SDS011;51386;53.082;8.816;2022-10-04T10:59:31;6.17;;;2.83;;
64887;SDS011;51386;53.082;8.816;2022-10-04T11:09:07;5.27;;;2.50;;
64887;SDS011;51386;53.082;8.816;2022-10-04T11:12:15;4.30;;;2.70;;
64887;SDS011;51386;53.082;8.816;2022-10-04T11:15:30;3.20;;;2.63;;
64887;SDS011;51386;53.082;8.816;2022-10-04T11:18:49;6.90;;;2.67;;
64887;SDS011;51386;53.082;8.816;2022-10-04T11:22:09;7.13;;;3.17;;
64887;SDS011;51386;53.082;8.816;2022-10-04T11:28:45;4.90;;;2.60;;
64887;SDS011;51386;53.082;8.816;2022-10-04T11:35:06;7.77;;;3.40;;
64887;SDS011;51386;53.082;8.816;2022-10-04T11:38:21;4.83;;;3.03;;
64887;SDS011;51386;53.082;8.816;2022-10-04T11:41:16;7.93;;;3.70;;
64887;SDS011;51386;53.082;8.816;2022-10-04T11:47:27;5.63;;;3.65;;
64887;SDS011;51386;53.082;8.816;2022-10-04T11:50:16;6.03;;;3.30;;
64887;SDS011;51386;53.082;8.816;2022-10-04T11:56:37;7.80;;;3.40;;
64887;SDS011;51386;53.082;8.816;2022-10-04T11:59:44;5.37;;;3.00;;
64887;SDS011;51386;53.082;8.816;2022-10-04T12:09:02;8.97;;;3.33;;
64887;SDS011;51386;53.082;8.816;2022-10-04T12:18:17;7.40;;;4.00;;
64887;SDS011;51386;53.082;8.816;2022-10-04T12:27:32;5.43;;;3.07;;
64887;SDS011;51386;53.082;8.816;2022-10-04T12:30:57;6.57;;;3.40;;
64887;SDS011;51386;53.082;8.816;2022-10-04T12:33:38;6.40;;;4.03;;
64887;SDS011;51386;53.082;8.816;2022-10-04T12:36:23;5.80;;;3.77;;
64887;SDS011;51386;53.082;8.816;2022-10-04T12:39:21;6.33;;;3.17;;
64887;SDS011;51386;53.082;8.816;2022-10-04T12:42:12;6.07;;;4.30;;
64887;SDS011;51386;53.082;8.816;2022-10-04T12:45:02;8.00;;;4.03;;
64887;SDS011;51386;53.082;8.816;2022-10-04T12:48:11;9.60;;;3.53;;
64887;SDS011;51386;53.082;8.816;2022-10-04T12:50:55;6.47;;;3.53;;
64887;SDS011;51386;53.082;8.816;2022-10-04T12:53:38;6.40;;;3.87;;
64887;SDS011;51386;53.082;8.816;2022-10-04T12:56:29;6.17;;;3.60;;
64887;SDS011;51386;53.082;8.816;2022-10-04T12:59:16;5.57;;;3.90;;
64887;SDS011;51386;53.082;8.816;2022-10-04T13:02:04;6.43;;;4.20;;
64887;SDS011;51386;53.082;8.816;2022-10-04T13:04:53;6.03;;;3.63;;
64887;SDS011;51386;53.082;8.816;2022-10-04T13:07:30;6.10;;;4.33;;
64887;SDS011;51386;53.082;8.816;2022-10-04T13:10:39;4.67;;;3.43;;
64887;SDS011;51386;53.082;8.816;2022-10-04T13:13:33;8.17;;;3.43;;
64887;SDS011;51386;53.082;8.816;2022-10-04T13:16:22;4.50;;;3.40;;
64887;SDS011;51386;53.082;8.816;2022-10-04T13:19:32;4.47;;;2.93;;
64887;SDS011;51386;53.082;8.816;2022-10-04T13:22:22;6.93;;;3.03;;
64887;SDS011;51386;53.082;8.816;2022-10-04T13:25:25;5.47;;;3.13;;
64887;SDS011;51386;53.082;8.816;2022-10-04T13:28:31;7.77;;;3.40;;
64887;SDS011;51386;53.082;8.816;2022-10-04T13:31:09;5.77;;;2.90;;
64887;SDS011;51386;53.082;8.816;2022-10-04T13:33:51;4.90;;;3.30;;
64887;SDS011;51386;53.082;8.816;2022-10-04T13:36:37;4.07;;;3.20;;
64887;SDS011;51386;53.082;8.816;2022-10-04T13:39:31;5.90;;;3.03;;
64887;SDS011;51386;53.082;8.816;2022-10-04T13:42:27;6.97;;;3.40;;
64887;SDS011;51386;53.082;8.816;2022-10-04T13:45:33;8.17;;;3.03;;
64887;SDS011;51386;53.082;8.816;2022-10-04T13:48:23;6.27;;;2.83;;
64887;SDS011;51386;53.082;8.816;2022-10-04T13:51:13;5.87;;;3.20;;
64887;SDS011;51386;53.082;8.816;2022-10-04T13:54:45;6.50;;;3.20;;
64887;SDS011;51386;53.082;8.816;2022-10-04T13:57:50;7.90;;;2.90;;
64887;SDS011;51386;53.082;8.816;2022-10-04T14:00:32;4.73;;;3.07;;
64887;SDS011;51386;53.082;8.816;2022-10-04T14:03:26;4.60;;;2.40;;
64887;SDS011;51386;53.082;8.816;2022-10-04T14:10:01;4.80;;;2.60;;
64887;SDS011;51386;53.082;8.816;2022-10-04T14:19:42;9.63;;;3.17;;
64887;SDS011;51386;53.082;8.816;2022-10-04T14:23:16;5.63;;;2.60;;
64887;SDS011;51386;53.082;8.816;2022-10-04T14:26:20;5.93;;;3.37;;
64887;SDS011;51386;53.082;8.816;2022-10-04T14:29:49;3.20;;;2.33;;
64887;SDS011;51386;53.082;8.816;2022-10-04T14:32:41;5.77;;;2.83;;
64887;SDS011;51386;53.082;8.816;2022-10-04T14:45:42;5.60;;;2.83;;
64887;SDS011;51386;53.082;8.816;2022-10-04T14:48:44;4.43;;;2.97;;
64887;SDS011;51386;53.082;8.816;2022-10-04T14:51:35;5.20;;;2.53;;
64887;SDS011;51386;53.082;8.816;2022-10-04T14:54:26;3.50;;;2.57;;
64887;SDS011;51386;53.082;8.816;2022-10-04T14:57:08;6.60;;;2.80;;
64887;SDS011;51386;53.082;8.816;2022-10-04T14:59:51;7.40;;;2.53;;
64887;SDS011;51386;53.082;8.816;2022-10-04T15:02:45;5.83;;;2.87;;
64887;SDS011;51386;53.082;8.816;2022-10-04T15:05:57;6.47;;;3.50;;
64887;SDS011;51386;53.082;8.816;2022-10-04T15:08:50;4.33;;;2.97;;
64887;SDS011;51386;53.082;8.816;2022-10-04T15:11:43;5.43;;;3.23;;
64887;SDS011;51386;53.082;8.816;2022-10-04T15:17:54;5.67;;;3.10;;
64887;SDS011;51386;53.082;8.816;2022-10-04T15:20:31;5.60;;;2.97;;
64887;SDS011;51386;53.082;8.816;2022-10-04T15:23:14;4.90;;;3.03;;
64887;SDS011;51386;53.082;8.816;2022-10-04T15:25:55;6.73;;;3.20;;
64887;SDS011;51386;53.082;8.816;2022-10-04T15:28:32;4.40;;;2.70;;
64887;SDS011;51386;53.082;8.816;2022-10-04T15:31:21;5.47;;;3.07;;
64887;SDS011;51386;53.082;8.816;2022-10-04T15:34:01;5.43;;;2.93;;
64887;SDS011;51386;53.082;8.816;2022-10-04T15:36:58;4.37;;;3.03;;
64887;SDS011;51386;53.082;8.816;2022-10-04T15:39:39;5.93;;;2.60;;
64887;SDS011;51386;53.082;8.816;2022-10-04T15:42:31;6.57;;;3.10;;
64887;SDS011;51386;53.082;8.816;2022-10-04T15:45:20;7.27;;;2.90;;
64887;SDS011;51386;53.082;8.816;2022-10-04T15:51:43;8.70;;;3.10;;
64887;SDS011;51386;53.082;8.816;2022-10-04T16:01:21;4.60;;;2.77;;
64887;SDS011;51386;53.082;8.816;2022-10-04T16:07:36;4.63;;;2.97;;
64887;SDS011;51386;53.082;8.816;2022-10-04T16:10:45;6.00;;;3.10;;
64887;SDS011;51386;53.082;8.816;2022-10-04T16:13:37;6.50;;;3.43;;
64887;SDS011;51386;53.082;8.816;2022-10-04T16:16:29;8.07;;;3.17;;
64887;SDS011;51386;53.082;8.816;2022-10-04T16:19:42;5.47;;;2.97;;
64887;SDS011;51386;53.082;8.816;2022-10-04T16:25:54;3.67;;;2.40;;
64887;SDS011;51386;53.082;8.816;2022-10-04T16:28:42;4.20;;;2.87;;
64887;SDS011;51386;53.082;8.816;2022-10-04T16:31:42;4.40;;;3.23;;
64887;SDS011;51386;53.082;8.816;2022-10-04T16:34:23;7.37;;;3.43;;
64887;SDS011;51386;53.082;8.816;2022-10-04T16:37:33;4.63;;;3.23;;
64887;SDS011;51386;53.082;8.816;2022-10-04T16:40:18;5.10;;;2.83;;
64887;SDS011;51386;53.082;8.816;2022-10-04T16:43:08;3.83;;;3.10;;
64887;SDS011;51386;53.082;8.816;2022-10-04T16:46:02;5.57;;;3.60;;
64887;SDS011;51386;53.082;8.816;2022-10-04T16:48:46;7.37;;;3.00;;
64887;SDS011;51386;53.082;8.816;2022-10-04T16:54:54;6.43;;;4.23;;
64887;SDS011;51386;53.082;8.816;2022-10-04T17:11:16;6.50;;;3.97;;
64887;SDS011;51386;53.082;8.816;2022-10-04T17:14:01;7.30;;;4.13;;
64887;SDS011;51386;53.082;8.816;2022-10-04T17:17:04;5.87;;;3.80;;
64887;SDS011;51386;53.082;8.816;2022-10-04T17:19:48;6.63;;;3.93;;
64887;SDS011;51386;53.082;8.816;2022-10-04T17:22:23;4.50;;;4.10;;
64887;SDS011;51386;53.082;8.816;2022-10-04T17:25:11;6.83;;;3.70;;
64887;SDS011;51386;53.082;8.816;2022-10-04T17:27:58;9.37;;;3.73;;
64887;SDS011;51386;53.082;8.816;2022-10-04T17:30:46;5.87;;;3.47;;
64887;SDS011;51386;53.082;8.816;2022-10-04T17:33:27;6.63;;;4.20;;
64887;SDS011;51386;53.082;8.816;2022-10-04T17:36:14;6.07;;;4.17;;
64887;SDS011;51386;53.082;8.816;2022-10-04T17:39:05;7.80;;;4.20;;
64887;SDS011;51386;53.082;8.816;2022-10-04T17:41:50;6.63;;;4.17;;
64887;SDS011;51386;53.082;8.816;2022-10-04T17:44:42;7.13;;;4.43;;
64887;SDS011;51386;53.082;8.816;2022-10-04T17:47:34;6.40;;;4.37;;
64887;SDS011;51386;53.082;8.816;2022-10-04T17:50:26;5.10;;;4.53;;
64887;SDS011;51386;53.082;8.816;2022-10-04T17:53:22;7.87;;;4.40;;
64887;SDS011;51386;53.082;8.816;2022-10-04T17:56:20;8.53;;;4.40;;
64887;SDS011;51386;53.082;8.816;2022-10-04T17:58:58;6.13;;;4.17;;
64887;SDS011;51386;53.082;8.816;2022-10-04T18:01:39;4.93;;;3.77;;
64887;SDS011;51386;53.082;8.816;2022-10-04T18:04:15;9.37;;;4.67;;
64887;SDS011;51386;53.082;8.816;2022-10-04T18:06:50;9.60;;;4.60;;
64887;SDS011;51386;53.082;8.816;2022-10-04T18:09:26;5.23;;;4.40;;
64887;SDS011;51386;53.082;8.816;2022-10-04T18:12:02;7.03;;;5.23;;
64887;SDS011;51386;53.082;8.816;2022-10-04T18:14:44;7.03;;;4.87;;
64887;SDS011;51386;53.082;8.816;2022-10-04T18:17:27;6.40;;;5.00;;
64887;SDS011;51386;53.082;8.816;2022-10-04T18:20:17;6.63;;;4.60;;
64887;SDS011;51386;53.082;8.816;2022-10-04T18:23:00;6.93;;;5.83;;
64887;SDS011;51386;53.082;8.816;2022-10-04T18:25:42;7.90;;;5.43;;
64887;SDS011;51386;53.082;8.816;2022-10-04T18:28:12;9.87;;;5.00;;
64887;SDS011;51386;53.082;8.816;2022-10-04T18:30:50;7.40;;;4.47;;
64887;SDS011;51386;53.082;8.816;2022-10-04T18:33:29;7.33;;;4.43;;
64887;SDS011;51386;53.082;8.816;2022-10-04T18:36:15;8.57;;;4.40;;
64887;SDS011;51386;53.082;8.816;2022-10-04T18:38:45;10.83;;;4.83;;
64887;SDS011;51386;53.082;8.816;2022-10-04T18:41:29;11.67;;;5.20;;
64887;SDS011;51386;53.082;8.816;2022-10-04T18:44:16;7.07;;;5.00;;
64887;SDS011;51386;53.082;8.816;2022-10-04T18:46:47;6.50;;;4.53;;
64887;SDS011;51386;53.082;8.816;2022-10-04T18:49:23;6.13;;;4.83;;
64887;SDS011;51386;53.082;8.816;2022-10-04T18:56:39;7.43;;;4.77;;
64887;SDS011;51386;53.082;8.816;2022-10-04T18:59:29;6.40;;;4.80;;
64887;SDS011;51386;53.082;8.816;2022-10-04T19:02:47;6.17;;;4.47;;
64887;SDS011;51386;53.082;8.816;2022-10-04T19:05:30;8.17;;;5.03;;
64887;SDS011;51386;53.082;8.816;2022-10-04T19:08:07;7.77;;;5.13;;
64887;SDS011;51386;53.082;8.816;2022-10-04T19:10:48;8.63;;;4.97;;
64887;SDS011;51386;53.082;8.816;2022-10-04T19:13:25;5.90;;;5.30;;
64887;SDS011;51386;53.082;8.816;2022-10-04T19:16:13;7.03;;;5.10;;
64887;SDS011;51386;53.082;8.816;2022-10-04T19:19:00;10.20;;;5.13;;
64887;SDS011;51386;53.082;8.816;2022-10-04T19:21:54;8.67;;;4.87;;
64887;SDS011;51386;53.082;8.816;2022-10-04T19:24:33;8.03;;;5.13;;
64887;SDS011;51386;53.082;8.816;2022-10-04T19:27:41;8.63;;;5.00;;
64887;SDS011;51386;53.082;8.816;2022-10-04T19:30:15;8.87;;;5.37;;
64887;SDS011;51386;53.082;8.816;2022-10-04T19:32:51;8.20;;;5.23;;
64887;SDS011;51386;53.082;8.816;2022-10-04T19:35:40;6.33;;;4.50;;
64887;SDS011;51386;53.082;8.816;2022-10-04T19:38:39;8.43;;;5.33;;
64887;SDS011;51386;53.082;8.816;2022-10-04T19:41:26;9.13;;;4.93;;
64887;SDS011;51386;53.082;8.816;2022-10-04T19:44:28;8.57;;;5.20;;